Time;durP1;ratioP1;P1;durP2;ratioP2;P2;SDS_P1;SDS_P2;PMS_P1;PMS_P2;Temp;Humidity;BMP_temperature;BMP_pressure;BME280_temperature;BME280_humidity;BME280_pressure;Samples;Min_cycle;Max_cycle;Signal;HPM_P1;HPM_P2
2021/09/14 00:00:57;;;;;;;;;4.50;3.75;;;;;;;;6337285;22;46884;-86
2021/09/14 00:03:22;;;;;;;;;4.25;4.25;;;;;;;;6335147;22;47167;-87
2021/09/14 00:05:48;;;;;;;;;3.75;3.75;;;;;;;;6337804;22;46783;-85
2021/09/14 00:08:13;;;;;;;;;4.00;4.00;;;;;;;;6337581;22;46858;-89
2021/09/14 00:10:38;;;;;;;;;2.50;2.50;;;;;;;;6337225;22;46760;-89
2021/09/14 00:13:04;;;;;;;;;4.00;4.00;;;;;;;;6335351;22;46798;-87
2021/09/14 00:15:29;;;;;;;;;6.00;4.50;;;;;;;;6337830;22;46699;-87
2021/09/14 00:17:54;;;;;;;;;4.25;3.50;;;;;;;;6337300;22;46721;-87
2021/09/14 00:20:20;;;;;;;;;6.25;6.00;;;;;;;;6337324;22;46709;-87
2021/09/14 00:22:45;;;;;;;;;5.00;4.00;;;;;;;;6337424;22;46824;-87
2021/09/14 00:25:11;;;;;;;;;2.50;2.50;;;;;;;;6337733;22;46855;-87
2021/09/14 00:27:37;;;;;;;;;6.00;4.25;;;;;;;;6336580;22;48040;-87
2021/09/14 00:30:03;;;;;;;;;5.25;5.25;;;;;;;;6337289;22;46933;-87
2021/09/14 00:32:28;;;;;;;;;4.25;4.25;;;;;;;;6337195;22;46826;-87
2021/09/14 00:34:54;;;;;;;;;5.00;4.75;;;;;;;;6337375;22;46966;-88
2021/09/14 00:37:19;;;;;;;;;4.00;4.00;;;;;;;;6334918;22;48457;-88
2021/09/14 00:39:44;;;;;;;;;4.00;4.00;;;;;;;;6334973;22;46878;-89
2021/09/14 00:42:09;;;;;;;;;7.00;6.00;;;;;;;;6336255;22;46954;-90
2021/09/14 00:44:35;;;;;;;;;6.00;6.00;;;;;;;;6337622;22;46891;-89
2021/09/14 00:47:00;;;;;;;;;6.25;5.50;;;;;;;;6337146;22;48411;-87
2021/09/14 00:49:26;;;;;;;;;3.75;3.75;;;;;;;;6336937;22;46826;-89
2021/09/14 00:51:51;;;;;;;;;4.00;4.00;;;;;;;;6337286;22;46716;-89
2021/09/14 00:54:17;;;;;;;;;5.25;5.00;;;;;;;;6337481;22;46691;-89
2021/09/14 00:56:43;;;;;;;;;8.75;5.50;;;;;;;;6334763;22;47039;-89
2021/09/14 00:59:11;;;;;;;;;3.00;3.00;;;;;;;;6337324;22;46723;-86
2021/09/14 01:01:37;;;;;;;;;6.00;5.25;;;;;;;;6338900;22;47144;-85
2021/09/14 01:04:03;;;;;;;;;7.00;4.75;;;;;;;;6338984;22;46796;-85
2021/09/14 01:06:28;;;;;;;;;5.25;5.00;;;;;;;;6339023;22;46839;-87
2021/09/14 01:08:54;;;;;;;;;5.50;5.00;;;;;;;;6338582;22;46986;-87
2021/09/14 01:11:20;;;;;;;;;5.50;4.50;;;;;;;;6336352;22;46836;-87
2021/09/14 01:13:46;;;;;;;;;6.00;6.00;;;;;;;;6336461;22;47161;-86
2021/09/14 01:16:11;;;;;;;;;5.00;5.00;;;;;;;;6338349;22;47962;-89
2021/09/14 01:18:37;;;;;;;;;6.00;5.00;;;;;;;;6338399;22;46803;-83
2021/09/14 01:21:02;;;;;;;;;3.00;3.00;;;;;;;;6336143;22;46775;-83
2021/09/14 01:23:28;;;;;;;;;5.00;5.00;;;;;;;;6338987;22;46676;-85
2021/09/14 01:25:53;;;;;;;;;5.00;4.00;;;;;;;;6338534;22;46745;-87
2021/09/14 01:28:18;;;;;;;;;6.25;5.00;;;;;;;;6338603;22;46796;-87
2021/09/14 01:30:46;;;;;;;;;5.50;5.50;;;;;;;;6336552;22;46764;-86
2021/09/14 01:33:11;;;;;;;;;6.00;5.25;;;;;;;;6336597;22;47217;-86
2021/09/14 01:35:37;;;;;;;;;5.25;5.25;;;;;;;;6338555;22;47035;-87
2021/09/14 01:38:02;;;;;;;;;4.75;4.50;;;;;;;;6338403;22;46858;-86
2021/09/14 01:40:28;;;;;;;;;6.00;5.00;;;;;;;;6337998;22;46858;-88
2021/09/14 01:42:54;;;;;;;;;6.50;5.00;;;;;;;;6338857;22;46743;-86
2021/09/14 01:45:20;;;;;;;;;7.00;5.00;;;;;;;;6338317;22;46877;-86
2021/09/14 01:47:45;;;;;;;;;5.75;4.25;;;;;;;;6338248;22;46742;-86
2021/09/14 01:50:11;;;;;;;;;6.75;4.75;;;;;;;;6338578;22;47010;-87
2021/09/14 01:52:37;;;;;;;;;6.00;5.25;;;;;;;;6338530;22;46684;-87
2021/09/14 01:55:07;;;;;;;;;7.00;5.50;;;;;;;;6338322;22;47351;-87
2021/09/14 01:57:37;;;;;;;;;6.50;5.00;;;;;;;;6338003;22;46873;-86
2021/09/14 02:00:09;;;;;;;;;5.25;4.50;;;;;;;;6335762;22;46710;-85
2021/09/14 02:05:34;;;;;;;;;8.00;5.25;;;;;;;;6337862;22;47263;-87
2021/09/14 02:40:32;;;;;;;;;7.75;6.00;;;;;;;;6331433;22;47028;-96
2021/09/14 02:59:03;;;;;;;;;5.50;3.75;;;;;;;;6339077;22;46728;-94
2021/09/14 03:01:29;;;;;;;;;5.00;5.00;;;;;;;;6337236;22;47330;-95
2021/09/14 03:03:55;;;;;;;;;6.25;6.00;;;;;;;;6336434;22;46864;-92
2021/09/14 03:06:21;;;;;;;;;5.50;4.50;;;;;;;;6336201;22;46752;-91
2021/09/14 03:08:47;;;;;;;;;6.25;6.25;;;;;;;;6336184;22;46839;-92
2021/09/14 03:11:16;;;;;;;;;7.50;5.00;;;;;;;;6335997;22;46761;-93
2021/09/14 03:13:42;;;;;;;;;6.00;6.00;;;;;;;;6336433;22;46986;-93
2021/09/14 03:16:08;;;;;;;;;6.00;6.00;;;;;;;;6336495;22;47046;-92
2021/09/14 03:18:34;;;;;;;;;6.00;5.00;;;;;;;;6336095;22;47049;-91
2021/09/14 03:21:07;;;;;;;;;5.75;5.00;;;;;;;;6337948;22;46752;-92
2021/09/14 03:23:33;;;;;;;;;7.25;6.00;;;;;;;;6335235;22;46716;-92
2021/09/14 03:25:59;;;;;;;;;6.00;5.75;;;;;;;;6335832;22;47243;-92
2021/09/14 03:28:24;;;;;;;;;8.25;6.75;;;;;;;;6337848;22;46982;-92
2021/09/14 03:30:50;;;;;;;;;6.75;5.00;;;;;;;;6338220;22;46898;-92
2021/09/14 03:33:16;;;;;;;;;6.75;5.00;;;;;;;;6326479;22;46833;-91
2021/09/14 03:35:41;;;;;;;;;6.25;6.25;;;;;;;;6336594;22;47147;-92
2021/09/14 03:38:06;;;;;;;;;6.00;5.00;;;;;;;;6336142;22;47287;-93
2021/09/14 03:40:32;;;;;;;;;4.00;4.00;;;;;;;;6335943;22;47252;-92
2021/09/14 03:43:01;;;;;;;;;5.00;5.00;;;;;;;;6336393;22;46855;-92
2021/09/14 03:45:26;;;;;;;;;6.50;4.00;;;;;;;;6336364;22;46855;-93
2021/09/14 03:47:52;;;;;;;;;5.00;5.00;;;;;;;;6335852;22;49236;-94
2021/09/14 03:50:17;;;;;;;;;5.00;4.75;;;;;;;;6314315;22;47396;-93
2021/09/14 03:52:50;;;;;;;;;5.00;5.00;;;;;;;;6336117;22;46716;-93
2021/09/14 03:55:15;;;;;;;;;7.50;6.00;;;;;;;;6309184;22;46905;-92
2021/09/14 03:57:43;;;;;;;;;8.00;6.25;;;;;;;;6309344;22;48347;-93
2021/09/14 04:00:11;;;;;;;;;5.00;5.00;;;;;;;;6309776;22;46901;-93
2021/09/14 04:11:55;;;;;;;;;6.00;5.75;;;;;;;;6240698;22;46833;-92
2021/09/14 04:14:30;;;;;;;;;;;;;;;;;;;;;
2021/09/14 04:17:22;;;;;;;;;6.00;5.00;;;;;;;;6336828;22;67481;-94
2021/09/14 04:19:54;;;;;;;;;6.25;5.00;;;;;;;;6334572;22;47362;-93
2021/09/14 04:22:20;;;;;;;;;7.00;6.00;;;;;;;;6337392;22;46848;-92
2021/09/14 04:24:45;;;;;;;;;7.00;7.00;;;;;;;;6337753;22;47386;-91
2021/09/14 04:27:11;;;;;;;;;7.75;6.00;;;;;;;;6309199;22;47247;-93
2021/09/14 04:29:36;;;;;;;;;8.25;5.00;;;;;;;;6308713;22;47032;-91
2021/09/14 04:32:02;;;;;;;;;6.00;5.00;;;;;;;;6309827;22;46907;-92
2021/09/14 04:34:29;;;;;;;;;7.50;5.25;;;;;;;;6310186;22;47006;-92
2021/09/14 04:36:57;;;;;;;;;7.00;7.00;;;;;;;;6310710;22;47142;-92
2021/09/14 04:39:25;;;;;;;;;6.00;6.00;;;;;;;;6309937;22;48756;-89
2021/09/14 04:41:56;;;;;;;;;8.75;8.50;;;;;;;;6338568;22;46779;-91
2021/09/14 04:44:23;;;;;;;;;7.75;5.50;;;;;;;;6310384;22;46934;-92
2021/09/14 04:47:01;;;;;;;;;;;;;;;;;;;;;
2021/09/14 04:59:14;;;;;;;;;5.75;5.25;;;;;;;;6338599;22;47176;-91
2021/09/14 05:01:42;;;;;;;;;8.25;6.25;;;;;;;;6337558;22;46907;-90
2021/09/14 05:04:07;;;;;;;;;8.00;7.25;;;;;;;;6338824;22;46903;-91
2021/09/14 05:09:37;;;;;;;;;;;;;;;;;;;;;
2021/09/14 05:12:53;;;;;;;;;;;;;;;;;;;;;
2021/09/14 05:15:23;;;;;;;;;8.75;5.50;;;;;;;;6328250;22;46758;-90
2021/09/14 05:17:56;;;;;;;;;6.00;5.00;;;;;;;;6311041;22;47075;-90
2021/09/14 05:20:45;;;;;;;;;7.00;5.75;;;;;;;;6310863;22;46749;-93
2021/09/14 05:23:21;;;;;;;;;7.00;7.00;;;;;;;;6310276;22;48536;-91
2021/09/14 05:26:15;;;;;;;;;6.00;6.00;;;;;;;;6310722;22;47043;-89
2021/09/14 05:29:00;;;;;;;;;7.00;7.00;;;;;;;;6334159;22;46790;-91
2021/09/14 05:31:37;;;;;;;;;6.75;5.00;;;;;;;;6338964;22;46890;-89
2021/09/14 05:37:28;;;;;;;;;9.25;8.00;;;;;;;;6315516;22;46688;-88
2021/09/14 05:40:19;;;;;;;;;5.25;5.25;;;;;;;;6309700;22;46739;-89
2021/09/14 05:42:57;;;;;;;;;;;;;;;;;;;;;
2021/09/14 05:45:23;;;;;;;;;6.50;6.00;;;;;;;;6337134;22;76393;-91
2021/09/14 05:51:06;;;;;;;;;6.25;5.75;;;;;;;;6233662;22;46760;-88
2021/09/14 05:53:31;;;;;;;;;6.00;6.00;;;;;;;;6339412;22;46913;-93
2021/09/14 05:55:57;;;;;;;;;6.00;6.00;;;;;;;;6310298;22;48381;-87
2021/09/14 05:58:22;;;;;;;;;4.50;4.50;;;;;;;;6338539;22;47051;-88
2021/09/14 06:13:48;;;;;;;;;;;;;;;;;;;;;
2021/09/14 06:16:55;;;;;;;;;;;;;;;;;;;;;
2021/09/14 06:19:51;;;;;;;;;;;;;;;;;;;;;
2021/09/14 06:25:21;;;;;;;;;;;;;;;;;;;;;
2021/09/14 06:30:47;;;;;;;;;7.75;6.00;;;;;;;;6277738;22;46793;-85
2021/09/14 06:36:26;;;;;;;;;9.50;7.00;;;;;;;;6279943;22;47006;-83
2021/09/14 06:42:18;;;;;;;;;;;;;;;;;;;;;
2021/09/14 13:47:20;;;;;;;;;;;;;;;;;;;;;
2021/09/14 13:49:51;;;;;;;;;8.00;8.00;;;;;;;;6369192;22;74168;-85
2021/09/14 13:52:49;;;;;;;;;;;;;;;;;;;;;
2021/09/14 13:55:24;;;;;;;;;5.75;4.75;;;;;;;;6364714;22;67511;-84
2021/09/14 13:57:50;;;;;;;;;8.75;7.00;;;;;;;;6367307;22;47975;-83
2021/09/14 14:00:16;;;;;;;;;2.75;2.00;;;;;;;;6370305;22;46868;-84
2021/09/14 14:02:46;;;;;;;;;2.50;2.50;;;;;;;;6341576;22;46819;-84
2021/09/14 14:05:12;;;;;;;;;2.75;2.75;;;;;;;;6341645;22;46793;-83
2021/09/14 14:07:37;;;;;;;;;4.25;4.00;;;;;;;;6341366;22;47003;-83
2021/09/14 14:10:06;;;;;;;;;7.25;4.50;;;;;;;;6370231;22;46846;-84
2021/09/14 14:12:31;;;;;;;;;3.25;3.00;;;;;;;;6341662;22;46835;-84
2021/09/14 14:14:57;;;;;;;;;2.50;2.50;;;;;;;;6341567;22;46954;-83
2021/09/14 14:17:32;;;;;;;;;3.25;3.25;;;;;;;;6370246;22;47571;-86
2021/09/14 14:20:00;;;;;;;;;2.00;2.00;;;;;;;;6369944;22;47478;-85
2021/09/14 14:22:35;;;;;;;;;3.00;3.00;;;;;;;;6341749;22;46867;-85
2021/09/14 14:25:10;;;;;;;;;4.00;2.00;;;;;;;;6369931;22;46918;-85
2021/09/14 14:27:38;;;;;;;;;3.00;3.00;;;;;;;;6341493;22;49089;-86
2021/09/14 14:30:06;;;;;;;;;2.00;2.00;;;;;;;;6370186;22;47035;-85
2021/09/14 14:32:49;;;;;;;;;;;;;;;;;;;;;
2021/09/14 14:35:24;;;;;;;;;3.00;3.00;;;;;;;;6369368;22;67688;-86
2021/09/14 14:38:16;;;;;;;;;3.50;3.25;;;;;;;;6369689;22;46932;-86
2021/09/14 14:40:44;;;;;;;;;4.75;4.00;;;;;;;;6370132;22;46814;-85
2021/09/14 14:43:10;;;;;;;;;3.00;3.00;;;;;;;;6341310;22;46895;-86
2021/09/14 14:45:53;;;;;;;;;3.75;3.75;;;;;;;;6370292;22;47251;-86
2021/09/14 14:48:21;;;;;;;;;5.00;3.75;;;;;;;;6341281;22;48347;-86
2021/09/14 14:50:54;;;;;;;;;3.50;3.50;;;;;;;;6370185;22;47050;-87
2021/09/14 14:53:27;;;;;;;;;4.00;4.00;;;;;;;;6370196;22;46913;-86
2021/09/14 14:55:52;;;;;;;;;5.00;5.00;;;;;;;;6341163;22;47092;-86
2021/09/14 14:58:28;;;;;;;;;6.00;4.00;;;;;;;;6341825;22;48968;-86
2021/09/14 15:01:00;;;;;;;;;3.50;3.00;;;;;;;;6341594;22;47024;-86
2021/09/14 15:03:28;;;;;;;;;5.25;5.25;;;;;;;;6341762;22;46818;-85
2021/09/14 15:06:03;;;;;;;;;4.75;4.00;;;;;;;;6371026;22;46701;-86
2021/09/14 15:08:34;;;;;;;;;5.00;5.00;;;;;;;;6341238;22;49242;-86
2021/09/14 15:11:01;;;;;;;;;4.00;4.00;;;;;;;;6341455;22;47103;-85
2021/09/14 15:13:36;;;;;;;;;4.75;4.00;;;;;;;;6369628;22;46645;-86
2021/09/14 15:16:43;;;;;;;;;5.00;4.00;;;;;;;;6341218;22;47077;-85
2021/09/14 15:19:20;;;;;;;;;;;;;;;;;;;;;
2021/09/14 15:21:48;;;;;;;;;8.50;6.00;;;;;;;;6368481;22;75448;-86
2021/09/14 15:27:12;;;;;;;;;5.50;5.00;;;;;;;;6341588;22;47737;-85
2021/09/14 15:29:58;;;;;;;;;6.00;5.00;;;;;;;;6369237;22;48033;-84
2021/09/14 15:32:23;;;;;;;;;4.00;3.50;;;;;;;;6370021;22;46866;-85
2021/09/14 15:34:49;;;;;;;;;3.25;3.00;;;;;;;;6340915;22;46882;-85
2021/09/14 15:37:16;;;;;;;;;3.75;3.75;;;;;;;;6370105;22;46973;-85
2021/09/14 15:39:43;;;;;;;;;4.00;4.00;;;;;;;;6341053;22;48432;-83
2021/09/14 15:42:09;;;;;;;;;5.25;4.00;;;;;;;;6369727;22;46871;-83
2021/09/14 15:44:35;;;;;;;;;3.75;3.25;;;;;;;;6370028;22;47005;-84
2021/09/14 15:47:00;;;;;;;;;5.00;4.00;;;;;;;;6341110;22;46816;-86
2021/09/14 15:49:25;;;;;;;;;5.00;5.00;;;;;;;;6369082;22;46930;-83
2021/09/14 15:51:51;;;;;;;;;3.50;3.50;;;;;;;;6369612;22;46948;-85
2021/09/14 15:54:16;;;;;;;;;5.00;4.50;;;;;;;;6369844;22;46921;-85
2021/09/14 15:56:42;;;;;;;;;3.00;3.00;;;;;;;;6369570;22;46712;-85
2021/09/14 15:59:08;;;;;;;;;5.00;3.25;;;;;;;;6369336;22;47119;-85
2021/09/14 16:01:36;;;;;;;;;3.00;3.00;;;;;;;;6369987;22;46646;-88
2021/09/14 16:04:10;;;;;;;;;3.00;1.25;;;;;;;;6341022;22;46902;-87
2021/09/14 16:06:36;;;;;;;;;3.00;2.00;;;;;;;;6369929;22;46666;-84
2021/09/14 16:09:02;;;;;;;;;2.00;2.00;;;;;;;;6369587;22;47815;-83
2021/09/14 16:11:27;;;;;;;;;3.75;2.75;;;;;;;;6369252;22;46975;-82
2021/09/14 16:13:52;;;;;;;;;2.50;2.50;;;;;;;;6369091;22;46895;-83
2021/09/14 16:16:18;;;;;;;;;4.75;3.50;;;;;;;;6369743;22;46883;-85
2021/09/14 16:18:44;;;;;;;;;3.00;3.00;;;;;;;;6369394;22;47841;-85
2021/09/14 16:21:10;;;;;;;;;3.00;3.00;;;;;;;;6340665;22;47820;-85
2021/09/14 16:23:45;;;;;;;;;;;;;;;;;;;;;
2021/09/14 16:26:11;;;;;;;;;2.25;2.25;;;;;;;;6368521;22;68107;-85
2021/09/14 16:28:36;;;;;;;;;4.00;4.00;;;;;;;;6369125;22;46902;-88
2021/09/14 16:31:03;;;;;;;;;2.00;2.00;;;;;;;;6369888;22;46890;-84
2021/09/14 16:33:28;;;;;;;;;3.50;3.50;;;;;;;;6370578;22;46882;-84
2021/09/14 16:35:56;;;;;;;;;3.00;3.00;;;;;;;;6370611;22;46690;-84
2021/09/14 16:38:22;;;;;;;;;2.00;2.00;;;;;;;;6370353;22;46973;-84
2021/09/14 16:40:56;;;;;;;;;3.75;3.25;;;;;;;;6341911;22;47117;-90
2021/09/14 16:43:21;;;;;;;;;4.00;4.00;;;;;;;;6371294;22;47050;-87
2021/09/14 16:45:47;;;;;;;;;2.50;2.50;;;;;;;;6371246;22;47081;-88
2021/09/14 16:48:12;;;;;;;;;2.00;2.00;;;;;;;;6342145;22;48605;-87
2021/09/14 16:50:41;;;;;;;;;3.50;3.50;;;;;;;;6370740;22;46951;-90
2021/09/14 16:53:06;;;;;;;;;3.00;3.00;;;;;;;;6370792;22;46791;-87
2021/09/14 16:55:33;;;;;;;;;3.50;2.50;;;;;;;;6370918;22;46771;-88
2021/09/14 16:58:00;;;;;;;;;2.50;2.50;;;;;;;;6371119;22;46806;-87
2021/09/14 17:00:25;;;;;;;;;5.25;4.25;;;;;;;;6370839;22;46967;-84
2021/09/14 17:02:50;;;;;;;;;4.25;4.25;;;;;;;;6371094;22;47055;-85
2021/09/14 17:05:16;;;;;;;;;5.25;4.50;;;;;;;;6370697;22;47154;-88
2021/09/14 17:07:42;;;;;;;;;4.00;4.00;;;;;;;;6370989;22;47030;-88
2021/09/14 17:10:08;;;;;;;;;4.25;4.25;;;;;;;;6371286;22;47080;-85
2021/09/14 17:12:33;;;;;;;;;5.00;4.00;;;;;;;;6371601;22;46782;-82
2021/09/14 17:14:59;;;;;;;;;4.00;3.00;;;;;;;;6371675;22;47243;-84
2021/09/14 17:17:24;;;;;;;;;4.00;4.00;;;;;;;;6342495;22;46884;-86
2021/09/14 17:19:52;;;;;;;;;6.00;4.00;;;;;;;;6370897;22;46776;-90
2021/09/14 19:13:59;;;;;;;;;6.00;5.00;;;;;;;;6338356;22;47120;-96
2021/09/14 19:16:48;;;;;;;;;6.00;6.00;;;;;;;;6315499;22;46854;-90
2021/09/14 19:19:32;;;;;;;;;;;;;;;;;;;;;
2021/09/14 19:21:58;;;;;;;;;8.75;6.75;;;;;;;;6340278;22;75199;-89
2021/09/14 19:27:31;;;;;;;;;7.50;6.75;;;;;;;;6338443;22;46704;-90
2021/09/14 19:30:09;;;;;;;;;7.00;7.00;;;;;;;;6339084;22;47870;-90
2021/09/14 19:35:20;;;;;;;;;4.75;4.75;;;;;;;;6315635;22;47092;-89
2021/09/14 19:37:45;;;;;;;;;9.75;9.75;;;;;;;;6338952;22;46851;-88
2021/09/14 19:40:28;;;;;;;;;7.25;6.75;;;;;;;;6337912;22;47802;-87
2021/09/14 19:43:01;;;;;;;;;7.25;5.75;;;;;;;;6309997;22;46918;-86
2021/09/14 19:45:36;;;;;;;;;9.25;9.00;;;;;;;;6337718;22;47123;-86
2021/09/14 19:48:12;;;;;;;;;7.75;7.00;;;;;;;;6338910;22;46997;-85
2021/09/14 19:51:08;;;;;;;;;7.50;7.00;;;;;;;;6309784;22;49085;-86
2021/09/14 19:53:41;;;;;;;;;6.00;6.00;;;;;;;;6297079;22;47710;-86
2021/09/14 19:56:14;;;;;;;;;6.75;6.00;;;;;;;;6338191;22;46725;-88
2021/09/14 19:58:40;;;;;;;;;6.25;4.75;;;;;;;;6309903;22;47208;-86
2021/09/14 20:01:05;;;;;;;;;7.25;5.00;;;;;;;;6309729;22;48158;-87
2021/09/14 20:06:48;;;;;;;;;7.00;5.00;;;;;;;;6305770;22;46784;-85
2021/09/14 20:09:13;;;;;;;;;5.50;4.75;;;;;;;;6339273;22;46989;-84
2021/09/14 20:24:30;;;;;;;;;8.75;8.25;;;;;;;;6203556;22;47137;-87
2021/09/14 22:26:19;;;;;;;;;9.00;6.25;;;;;;;;6090178;23;47147;-88
2021/09/14 22:35:26;;;;;;;;;2.00;2.00;;;;;;;;6068551;22;46906;-84
2021/09/14 22:37:51;;;;;;;;;4.25;4.25;;;;;;;;6211594;22;46800;-86
2021/09/14 22:44:06;;;;;;;;;;;;;;;;;;;;;
2021/09/14 22:47:05;;;;;;;;;;;;;;;;;;;;;
2021/09/14 22:53:18;;;;;;;;;3.75;2.50;;;;;;;;6089215;23;47129;-87
2021/09/14 23:47:18;;;;;;;;;;;;;;;;;;;;;
2021/09/14 23:56:28;;;;;;;;;4.50;4.00;;;;;;;;6055959;23;47097;-85
